Time;durP1;ratioP1;P1;durP2;ratioP2;P2;SDS_P1;SDS_P2;PMS_P1;PMS_P2;Temp;Humidity;BMP_temperature;BMP_pressure;BME280_temperature;BME280_humidity;BME280_pressure;Samples;Min_cycle;Max_cycle;Signal;HPM_P1;HPM_P2
2021/03/19 00:01:18;;;;;;;30.42;19.30;;;5.50;99.90;;;;;;4898325;29;20029;-69
2021/03/19 00:03:44;;;;;;;32.25;19.95;;;5.50;99.90;;;;;;4897193;29;20426;-69
2021/03/19 00:06:10;;;;;;;29.23;19.60;;;5.40;99.90;;;;;;4881233;29;20413;-70
2021/03/19 00:08:35;;;;;;;27.08;18.95;;;5.50;99.90;;;;;;4880150;29;20510;-70
2021/03/19 00:11:01;;;;;;;31.20;20.17;;;5.40;99.90;;;;;;4880934;29;20059;-70
2021/03/19 00:13:27;;;;;;;29.38;18.27;;;5.40;99.90;;;;;;4897222;29;20039;-68
2021/03/19 00:15:53;;;;;;;26.58;18.88;;;5.40;99.90;;;;;;4881175;29;20499;-69
2021/03/19 00:18:19;;;;;;;28.98;18.85;;;5.50;99.90;;;;;;4881038;29;20033;-70
2021/03/19 00:20:46;;;;;;;24.45;17.40;;;5.40;99.90;;;;;;4880224;29;20204;-69
2021/03/19 00:23:13;;;;;;;25.38;17.00;;;5.30;99.90;;;;;;4880633;29;20033;-70
2021/03/19 00:25:40;;;;;;;23.58;16.50;;;5.30;99.90;;;;;;4880659;29;20028;-69
2021/03/19 00:28:07;;;;;;;25.38;16.90;;;5.30;99.90;;;;;;4897598;29;20480;-70
2021/03/19 00:30:33;;;;;;;23.08;15.93;;;5.30;99.90;;;;;;4897282;29;20128;-70
2021/03/19 00:33:01;;;;;;;24.83;17.10;;;5.30;99.90;;;;;;4898240;29;20039;-69
2021/03/19 00:35:27;;;;;;;21.35;16.00;;;5.20;99.90;;;;;;4897649;29;20111;-70
2021/03/19 00:37:53;;;;;;;21.65;15.88;;;5.20;99.90;;;;;;4878908;29;20065;-68
2021/03/19 00:40:19;;;;;;;27.50;17.88;;;5.20;99.90;;;;;;4880863;29;20041;-70
2021/03/19 00:42:45;;;;;;;25.88;17.05;;;5.10;99.90;;;;;;4880204;29;20081;-69
2021/03/19 00:45:14;;;;;;;27.90;17.20;;;5.10;99.90;;;;;;4897455;29;20029;-70
2021/03/19 00:47:40;;;;;;;26.17;17.33;;;5.10;99.90;;;;;;4879873;29;20041;-69
2021/03/19 00:50:12;;;;;;;25.10;18.45;;;5.20;99.90;;;;;;4880224;29;20064;-69
2021/03/19 00:52:38;;;;;;;26.60;18.25;;;5.20;99.90;;;;;;4879370;29;20100;-69
2021/03/19 00:55:10;;;;;;;23.98;18.25;;;5.10;99.90;;;;;;4896901;29;20051;-70
2021/03/19 00:57:36;;;;;;;;;;;5.10;99.90;;;;;;4897350;29;20036;-69
2021/03/19 01:00:08;;;;;;;27.35;17.83;;;5.00;99.90;;;;;;4879839;29;19998;-69
2021/03/19 01:02:33;;;;;;;27.48;18.20;;;5.10;99.90;;;;;;4879844;29;20142;-68
2021/03/19 01:04:59;;;;;;;27.63;18.73;;;5.10;99.90;;;;;;4896476;29;20115;-69
2021/03/19 01:07:25;;;;;;;28.08;17.85;;;5.00;99.90;;;;;;4879526;29;20135;-69
2021/03/19 01:09:51;;;;;;;29.98;19.40;;;5.10;99.90;;;;;;4879477;29;20537;-69
2021/03/19 01:12:16;;;;;;;25.05;19.23;;;5.00;99.90;;;;;;4880197;29;20032;-69
2021/03/19 01:14:43;;;;;;;25.10;17.98;;;5.00;99.90;;;;;;4879263;29;20470;-68
2021/03/19 01:17:08;;;;;;;24.15;17.83;;;5.00;99.90;;;;;;4880380;29;20390;-69
2021/03/19 01:19:34;;;;;;;24.00;17.35;;;5.00;99.90;;;;;;4878871;29;20024;-70
2021/03/19 01:22:00;;;;;;;29.63;18.98;;;5.00;99.90;;;;;;4896168;29;20472;-70
2021/03/19 01:24:25;;;;;;;22.00;16.58;;;4.90;99.90;;;;;;4880010;29;20029;-70
2021/03/19 01:26:51;;;;;;;25.00;18.25;;;5.00;99.90;;;;;;4878511;29;20300;-68
2021/03/19 01:29:17;;;;;;;22.70;16.35;;;4.90;99.90;;;;;;4896706;29;20033;-69
2021/03/19 01:31:42;;;;;;;27.67;19.17;;;5.00;99.90;;;;;;4895651;29;20394;-69
2021/03/19 01:34:08;;;;;;;26.13;17.90;;;4.80;99.90;;;;;;4879506;29;20503;-69
2021/03/19 01:36:34;;;;;;;25.27;17.45;;;4.90;99.90;;;;;;4878750;29;20047;-68
2021/03/19 01:39:00;;;;;;;26.02;18.50;;;4.90;99.90;;;;;;4878981;29;20040;-69
2021/03/19 01:41:25;;;;;;;28.00;19.23;;;5.00;99.90;;;;;;4896480;29;20033;-68
2021/03/19 01:44:08;;;;;;;23.30;17.80;;;4.90;99.90;;;;;;4895929;29;20035;-69
2021/03/19 01:47:11;;;;;;;27.38;19.85;;;4.80;99.90;;;;;;4878619;29;20375;-68
2021/03/19 01:50:15;;;;;;;28.35;19.58;;;4.70;99.90;;;;;;4878146;29;20119;-68
2021/03/19 01:53:18;;;;;;;26.13;18.77;;;4.60;99.90;;;;;;4895166;29;20035;-68
2021/03/19 01:56:25;;;;;;;30.88;20.33;;;4.60;99.90;;;;;;4878600;29;20053;-69
2021/03/19 01:59:28;;;;;;;29.95;20.35;;;4.70;99.90;;;;;;4878186;29;20128;-69
2021/03/19 02:02:32;;;;;;;34.20;23.38;;;4.70;99.90;;;;;;4878505;29;20075;-69
2021/03/19 02:05:35;;;;;;;34.10;21.52;;;4.70;99.90;;;;;;4878645;29;20081;-69
2021/03/19 02:08:38;;;;;;;34.58;21.25;;;4.70;99.90;;;;;;4878368;29;20104;-68
2021/03/19 02:11:41;;;;;;;36.58;23.15;;;4.60;99.90;;;;;;4896011;29;20057;-69
2021/03/19 02:14:44;;;;;;;37.97;23.42;;;4.50;99.90;;;;;;4896041;29;20040;-68
2021/03/19 02:17:47;;;;;;;38.53;24.02;;;4.60;99.90;;;;;;4878960;29;20394;-69
2021/03/19 02:20:50;;;;;;;35.25;23.10;;;4.60;99.90;;;;;;4878595;29;20088;-69
2021/03/19 02:23:54;;;;;;;36.97;23.58;;;4.60;99.90;;;;;;4878778;29;20470;-69
2021/03/19 02:26:57;;;;;;;37.20;23.02;;;4.70;99.90;;;;;;4878869;29;20037;-69
2021/03/19 02:30:00;;;;;;;37.00;24.45;;;4.70;99.90;;;;;;4878817;29;20028;-70
2021/03/19 02:32:28;;;;;;;38.38;23.40;;;4.80;99.90;;;;;;4878854;29;20055;-69
2021/03/19 02:35:04;;;;;;;41.55;25.35;;;4.70;99.90;;;;;;4894833;29;20024;-68
2021/03/19 02:37:34;;;;;;;38.35;24.10;;;4.70;99.90;;;;;;4895895;29;20135;-69
2021/03/19 02:40:00;;;;;;;41.60;25.65;;;4.60;99.90;;;;;;4878993;29;20036;-69
2021/03/19 02:42:30;;;;;;;37.08;24.15;;;4.70;99.90;;;;;;4895528;29;20029;-69
2021/03/19 02:44:57;;;;;;;39.30;25.15;;;4.60;99.90;;;;;;4878057;29;20039;-69
2021/03/19 02:47:23;;;;;;;41.42;26.10;;;4.50;99.90;;;;;;4878164;29;20036;-69
2021/03/19 02:49:49;;;;;;;37.58;25.25;;;4.50;99.90;;;;;;4877922;29;20025;-68
2021/03/19 02:52:16;;;;;;;36.03;23.88;;;4.40;99.90;;;;;;4878433;29;20033;-70
2021/03/19 02:54:41;;;;;;;35.58;23.85;;;4.40;99.90;;;;;;4894860;29;20107;-69
2021/03/19 02:57:07;;;;;;;30.20;21.77;;;4.60;99.90;;;;;;4878324;29;20140;-70
2021/03/19 02:59:33;;;;;;;34.10;22.33;;;4.60;99.90;;;;;;4895551;29;20134;-69
2021/03/19 03:01:58;;;;;;;32.00;21.25;;;4.50;99.90;;;;;;4879257;29;20176;-69
2021/03/19 03:04:24;;;;;;;31.95;20.88;;;4.60;99.90;;;;;;4882120;29;20031;-69
2021/03/19 03:06:54;;;;;;;34.17;22.17;;;4.60;99.90;;;;;;4898408;29;20120;-69
2021/03/19 03:09:33;;;;;;;32.92;20.80;;;4.50;99.90;;;;;;4881720;29;20489;-69
2021/03/19 03:12:00;;;;;;;31.38;21.13;;;4.50;99.90;;;;;;4862966;29;20071;-69
2021/03/19 03:14:29;;;;;;;34.00;22.38;;;4.50;99.90;;;;;;4863434;29;20466;-69
2021/03/19 03:17:00;;;;;;;30.38;20.08;;;4.40;99.90;;;;;;4862808;29;20044;-68
2021/03/19 03:19:27;;;;;;;31.77;21.25;;;4.50;99.90;;;;;;4863427;29;20076;-69
2021/03/19 03:21:53;;;;;;;31.95;21.98;;;4.50;99.90;;;;;;4862825;29;20037;-69
2021/03/19 03:24:20;;;;;;;34.45;21.20;;;4.50;99.90;;;;;;4862912;29;20128;-69
2021/03/19 03:26:46;;;;;;;34.25;21.23;;;4.40;99.90;;;;;;4879461;29;20039;-69
2021/03/19 03:29:13;;;;;;;33.05;21.50;;;4.30;99.90;;;;;;4863203;29;20033;-69
2021/03/19 03:31:40;;;;;;;33.97;20.90;;;4.30;99.90;;;;;;4879712;29;20029;-69
2021/03/19 03:34:06;;;;;;;30.40;21.00;;;4.20;99.90;;;;;;4880594;29;20037;-68
2021/03/19 03:36:33;;;;;;;33.50;21.10;;;4.20;99.90;;;;;;4880699;29;20104;-69
2021/03/19 03:38:59;;;;;;;33.63;20.05;;;4.20;99.90;;;;;;4879494;29;20128;-69
2021/03/19 03:41:27;;;;;;;35.10;21.60;;;4.30;99.90;;;;;;4863080;29;20041;-69
2021/03/19 03:43:53;;;;;;;37.35;20.27;;;4.20;99.90;;;;;;4879178;29;20036;-70
2021/03/19 03:46:21;;;;;;;29.88;19.95;;;4.20;99.90;;;;;;4862972;29;20047;-70
2021/03/19 03:48:48;;;;;;;28.65;18.52;;;4.30;99.90;;;;;;4862456;29;20047;-70
2021/03/19 03:51:14;;;;;;;33.38;20.65;;;4.30;99.90;;;;;;4879516;29;20060;-69
2021/03/19 03:53:40;;;;;;;29.35;18.95;;;4.20;99.90;;;;;;4862167;29;20033;-69
2021/03/19 03:56:09;;;;;;;30.42;18.33;;;4.30;99.90;;;;;;4879540;29;20029;-69
2021/03/19 03:58:35;;;;;;;31.83;18.65;;;4.20;99.90;;;;;;4879910;29;20037;-69
2021/03/19 04:01:02;;;;;;;25.63;17.27;;;4.30;99.90;;;;;;4879020;29;20065;-69
2021/03/19 04:03:28;;;;;;;29.90;18.50;;;4.30;99.90;;;;;;4863192;29;20101;-69
2021/03/19 04:05:53;;;;;;;27.95;17.67;;;4.30;99.90;;;;;;4861996;29;20467;-69
2021/03/19 04:08:24;;;;;;;27.40;17.30;;;4.40;99.90;;;;;;4862509;29;20033;-69
2021/03/19 04:10:51;;;;;;;28.13;16.75;;;4.30;99.90;;;;;;4878353;29;20418;-69
2021/03/19 04:13:17;;;;;;;31.65;16.90;;;4.30;99.90;;;;;;4879830;29;20439;-69
2021/03/19 04:15:43;;;;;;;26.58;17.15;;;4.20;99.90;;;;;;4878570;29;20037;-70
2021/03/19 04:18:13;;;;;;;30.08;18.13;;;4.20;99.90;;;;;;4879281;29;20044;-69
2021/03/19 04:20:40;;;;;;;31.15;17.63;;;4.10;99.90;;;;;;4879176;29;20033;-68
2021/03/19 04:23:06;;;;;;;31.58;17.35;;;4.10;99.90;;;;;;4861409;29;20345;-69
2021/03/19 04:25:33;;;;;;;30.58;19.13;;;4.00;99.90;;;;;;4862362;29;20530;-69
2021/03/19 04:28:14;;;;;;;31.67;17.02;;;4.00;99.90;;;;;;4861595;29;20134;-69
2021/03/19 04:30:43;;;;;;;28.98;17.70;;;4.10;99.90;;;;;;4862216;29;20037;-70
2021/03/19 04:33:15;;;;;;;29.48;18.40;;;4.10;99.90;;;;;;4862366;29;20036;-69
2021/03/19 04:35:41;;;;;;;28.73;16.83;;;4.10;99.90;;;;;;4865807;29;20388;-69
2021/03/19 04:38:15;;;;;;;27.23;16.42;;;4.10;99.90;;;;;;4842901;29;20034;-69
2021/03/19 04:40:42;;;;;;;28.90;17.02;;;3.90;99.90;;;;;;4843757;29;20476;-70
2021/03/19 04:43:09;;;;;;;27.05;17.10;;;4.00;99.90;;;;;;4859060;29;20056;-68
2021/03/19 04:45:39;;;;;;;29.88;18.13;;;4.00;99.90;;;;;;4860224;29;20385;-68
2021/03/19 04:48:06;;;;;;;26.27;16.23;;;3.90;99.90;;;;;;4842712;29;20153;-69
2021/03/19 04:50:31;;;;;;;29.67;15.80;;;3.90;99.90;;;;;;4843501;29;20116;-69
2021/03/19 04:52:57;;;;;;;29.23;17.08;;;3.90;99.90;;;;;;4842564;29;20518;-69
2021/03/19 04:55:23;;;;;;;26.15;16.90;;;3.90;99.90;;;;;;4859246;29;20508;-70
2021/03/19 04:57:49;;;;;;;28.73;16.35;;;4.00;99.90;;;;;;4848747;29;20463;-67
2021/03/19 05:00:16;;;;;;;25.65;15.93;;;4.00;99.90;;;;;;4867048;29;20039;-68
2021/03/19 05:02:46;;;;;;;27.60;16.80;;;3.90;99.90;;;;;;4878455;29;20028;-66
2021/03/19 05:05:16;;;;;;;26.25;16.15;;;3.90;99.90;;;;;;4888327;29;20035;-71
2021/03/19 05:07:42;;;;;;;29.40;16.80;;;3.90;99.90;;;;;;4878043;29;20093;-68
2021/03/19 05:10:10;;;;;;;29.65;17.02;;;4.00;99.90;;;;;;4877743;29;20049;-69
2021/03/19 05:12:35;;;;;;;31.15;17.27;;;3.90;99.90;;;;;;4861761;29;20141;-68
2021/03/19 05:15:02;;;;;;;29.02;17.08;;;3.80;99.90;;;;;;4877206;29;20037;-67
2021/03/19 05:17:30;;;;;;;28.63;17.15;;;3.90;99.90;;;;;;4861702;29;20040;-70
2021/03/19 05:19:57;;;;;;;26.15;16.45;;;3.90;99.90;;;;;;4860998;29;20089;-71
2021/03/19 05:22:24;;;;;;;27.02;16.45;;;3.70;99.90;;;;;;4861599;29;20120;-70
2021/03/19 05:24:50;;;;;;;24.67;15.93;;;3.70;99.90;;;;;;4848499;29;20109;-69
2021/03/19 05:27:16;;;;;;;28.75;17.38;;;3.80;99.90;;;;;;4887383;29;20543;-69
2021/03/19 05:29:41;;;;;;;27.80;16.50;;;3.80;99.90;;;;;;4870777;29;20115;-70
2021/03/19 05:32:07;;;;;;;27.90;16.20;;;3.80;99.90;;;;;;4869995;29;20029;-70
2021/03/19 05:34:33;;;;;;;29.65;17.52;;;3.80;99.90;;;;;;4877322;29;20033;-70
2021/03/19 05:36:59;;;;;;;25.00;15.88;;;3.80;99.90;;;;;;4859812;29;20037;-70
2021/03/19 05:39:25;;;;;;;29.52;16.30;;;3.70;99.90;;;;;;4877702;29;20033;-71
2021/03/19 05:41:51;;;;;;;30.05;17.58;;;3.70;99.90;;;;;;4860262;29;20077;-70
2021/03/19 05:44:20;;;;;;;30.48;17.35;;;3.70;99.90;;;;;;4865244;29;20368;-70
2021/03/19 05:46:49;;;;;;;26.58;16.58;;;3.70;99.90;;;;;;4895743;29;20380;-70
2021/03/19 05:49:15;;;;;;;28.70;16.85;;;3.80;99.90;;;;;;4895998;29;20028;-70
2021/03/19 05:51:46;;;;;;;27.83;16.70;;;3.70;99.90;;;;;;4879435;29;20024;-70
2021/03/19 05:54:26;;;;;;;29.70;17.25;;;3.60;99.90;;;;;;4896252;29;20119;-67
2021/03/19 05:57:04;;;;;;;26.85;15.23;;;3.60;99.90;;;;;;4879089;29;20570;-71
2021/03/19 05:59:38;;;;;;;26.60;15.60;;;3.50;99.90;;;;;;4879478;29;20029;-71
2021/03/19 06:02:16;;;;;;;28.50;16.70;;;3.60;99.90;;;;;;4878568;29;20901;-71
2021/03/19 06:04:43;;;;;;;35.45;17.25;;;3.60;99.90;;;;;;4890634;29;20139;-71
2021/03/19 06:07:08;;;;;;;32.47;17.02;;;3.60;99.90;;;;;;4859648;29;20076;-71
2021/03/19 06:09:39;;;;;;;27.05;15.90;;;3.50;99.90;;;;;;4859794;29;20399;-71
2021/03/19 06:12:17;;;;;;;27.90;16.40;;;3.60;99.90;;;;;;4859846;29;20354;-71
2021/03/19 06:14:48;;;;;;;25.95;15.85;;;3.60;99.90;;;;;;4877029;29;20555;-70
2021/03/19 06:17:29;;;;;;;27.33;15.80;;;3.70;99.90;;;;;;4860558;29;20037;-70
2021/03/19 06:20:16;;;;;;;23.13;14.30;;;3.60;99.90;;;;;;4877057;29;20138;-70
2021/03/19 06:22:58;;;;;;;29.95;17.67;;;3.70;99.90;;;;;;4875353;29;20186;-71
2021/03/19 06:25:40;;;;;;;28.98;17.67;;;3.90;99.90;;;;;;4860734;29;20032;-70
2021/03/19 06:28:29;;;;;;;23.48;16.13;;;3.80;99.90;;;;;;4859625;29;20048;-70
2021/03/19 06:31:15;;;;;;;30.38;15.48;;;3.90;99.90;;;;;;4859434;29;20120;-71
2021/03/19 06:33:40;;;;;;;30.00;16.83;;;3.90;99.90;;;;;;4873001;29;20051;-72
2021/03/19 06:36:21;;;;;;;30.10;15.65;;;3.80;99.90;;;;;;4858218;29;20021;-71
2021/03/19 06:39:03;;;;;;;25.80;14.95;;;4.00;99.90;;;;;;4859727;29;20037;-71
2021/03/19 06:41:32;;;;;;;27.13;15.75;;;4.10;99.90;;;;;;4859949;29;20037;-72
2021/03/19 06:44:17;;;;;;;26.63;16.23;;;4.10;99.90;;;;;;4859250;29;20029;-71
2021/03/19 06:46:46;;;;;;;30.15;17.67;;;4.20;99.90;;;;;;4860283;29;20047;-71
2021/03/19 06:49:13;;;;;;;28.65;16.60;;;4.40;99.90;;;;;;4859684;29;20033;-71
2021/03/19 06:51:45;;;;;;;25.88;16.15;;;4.40;99.90;;;;;;4860179;29;20025;-72
2021/03/19 06:54:15;;;;;;;;;;;4.40;99.90;;;;;;4859710;29;20033;-72
2021/03/19 06:57:10;;;;;;;32.50;16.40;;;4.50;99.90;;;;;;4859622;29;19912;-71
2021/03/19 06:59:54;;;;;;;26.60;15.52;;;4.80;99.90;;;;;;4872093;29;20183;-71
2021/03/19 07:02:34;;;;;;;24.30;14.70;;;5.00;99.90;;;;;;4859806;29;20029;-73
2021/03/19 07:05:34;;;;;;;28.27;16.15;;;5.20;99.90;;;;;;4875833;29;20085;-70
2021/03/19 07:08:20;;;;;;;27.10;15.55;;;5.40;99.90;;;;;;4858622;29;20034;-72
2021/03/19 07:10:58;;;;;;;26.35;15.82;;;5.20;99.90;;;;;;4859315;29;20567;-72
2021/03/19 07:13:57;;;;;;;28.00;16.77;;;5.00;99.90;;;;;;4876276;29;20456;-71
2021/03/19 07:16:39;;;;;;;30.30;17.25;;;5.00;99.90;;;;;;4876824;29;20037;-71
2021/03/19 07:19:21;;;;;;;28.50;15.63;;;5.00;99.90;;;;;;4859080;29;20328;-72
2021/03/19 07:22:21;;;;;;;22.92;14.48;;;5.30;99.90;;;;;;4859650;29;20029;-71
2021/03/19 07:25:02;;;;;;;23.33;14.65;;;5.50;99.90;;;;;;4859654;29;20029;-71
2021/03/19 07:27:55;;;;;;;20.92;13.68;;;5.50;99.90;;;;;;4876745;29;20424;-70
2021/03/19 07:30:39;;;;;;;20.38;12.40;;;5.50;99.90;;;;;;4876157;29;20093;-71
2021/03/19 07:33:27;;;;;;;18.88;12.85;;;5.70;99.90;;;;;;4858399;29;20052;-71
2021/03/19 07:36:17;;;;;;;23.38;12.68;;;6.00;99.90;;;;;;4875515;29;20460;-73
2021/03/19 07:39:02;;;;;;;20.23;11.75;;;6.50;99.90;;;;;;4859555;29;20037;-72
2021/03/19 07:41:58;;;;;;;22.23;12.82;;;7.10;99.90;;;;;;4876208;29;20052;-71
2021/03/19 07:44:36;;;;;;;23.20;13.40;;;7.60;99.90;;;;;;4876411;29;20112;-72
2021/03/19 07:47:26;;;;;;;21.90;14.68;;;7.60;99.70;;;;;;4875645;29;20038;-72
2021/03/19 07:50:11;;;;;;;22.30;14.00;;;7.70;99.90;;;;;;4862225;29;20421;-70
2021/03/19 07:52:43;;;;;;;25.77;14.43;;;7.70;99.60;;;;;;4864878;29;20029;-72
2021/03/19 07:55:23;;;;;;;26.10;14.38;;;7.70;99.90;;;;;;4862578;29;20029;-72
2021/03/19 07:57:53;;;;;;;23.40;15.52;;;7.80;99.40;;;;;;4862951;29;20059;-72
2021/03/19 08:00:30;;;;;;;21.42;13.30;;;8.20;99.50;;;;;;4862447;29;20082;-72
2021/03/19 08:03:03;;;;;;;21.25;13.93;;;8.00;98.90;;;;;;4862356;29;20368;-73
2021/03/19 08:05:42;;;;;;;23.35;14.90;;;8.20;98.80;;;;;;4868689;29;20109;-71
2021/03/19 08:08:31;;;;;;;24.35;14.75;;;8.30;98.00;;;;;;4843404;29;20484;-71
2021/03/19 08:11:15;;;;;;;22.10;14.13;;;8.30;98.60;;;;;;4853675;29;20079;-71
2021/03/19 08:14:19;;;;;;;25.33;15.15;;;8.70;97.90;;;;;;4878412;29;20025;-72
2021/03/19 08:17:03;;;;;;;22.13;13.93;;;9.00;97.20;;;;;;4878217;29;20049;-72
2021/03/19 08:19:33;;;;;;;32.38;14.07;;;9.30;95.80;;;;;;4879609;29;20420;-73
2021/03/19 08:22:24;;;;;;;28.10;13.85;;;9.30;95.80;;;;;;4877335;29;20089;-70
2021/03/19 08:25:03;;;;;;;18.10;12.10;;;9.40;95.50;;;;;;4862029;29;20060;-72
2021/03/19 08:27:43;;;;;;;18.88;12.73;;;9.70;95.00;;;;;;4878482;29;20041;-71
2021/03/19 08:30:15;;;;;;;19.80;14.05;;;9.70;94.80;;;;;;4886237;29;20036;-72
2021/03/19 08:33:06;;;;;;;24.95;13.35;;;9.80;94.10;;;;;;4882610;29;20105;-71
2021/03/19 08:35:42;;;;;;;20.30;14.32;;;9.80;94.40;;;;;;4888234;29;20069;-71
2021/03/19 08:38:25;;;;;;;24.67;14.07;;;9.80;94.90;;;;;;4884519;29;20075;-74
2021/03/19 08:41:04;;;;;;;18.52;8.40;;;9.90;94.40;;;;;;4886773;29;20232;-59
2021/03/19 08:43:46;;;;;;;19.52;10.68;;;12.00;99.90;;;;;;4892956;29;20028;-57
2021/03/19 08:46:23;;;;;;;16.23;11.70;;;12.30;94.70;;;;;;4904007;29;20033;-69
2021/03/19 08:48:58;;;;;;;14.82;10.25;;;12.70;93.80;;;;;;4904594;29;20359;-54
2021/03/19 08:51:27;;;;;;;18.45;10.43;;;12.90;94.60;;;;;;4903092;29;20059;-64
2021/03/19 08:54:11;;;;;;;16.65;12.20;;;13.20;91.20;;;;;;4905525;29;20141;-72
2021/03/19 08:56:42;;;;;;;16.55;11.70;;;13.20;80.20;;;;;;4887766;29;20039;-71
2021/03/19 08:59:08;;;;;;;19.80;11.27;;;12.40;80.80;;;;;;4878135;29;20028;-72
2021/03/19 09:01:49;;;;;;;15.88;11.15;;;12.00;80.30;;;;;;4880213;29;20060;-71
2021/03/19 09:04:15;;;;;;;15.40;11.73;;;11.80;78.90;;;;;;4890120;29;20029;-72
2021/03/19 09:07:20;;;;;;;16.73;11.60;;;12.00;79.60;;;;;;4897101;29;20531;-71
2021/03/19 09:09:46;;;;;;;21.90;12.60;;;11.70;79.50;;;;;;4887214;29;20371;-70
2021/03/19 09:12:16;;;;;;;15.18;10.68;;;11.90;78.30;;;;;;4873862;29;20057;-71
2021/03/19 09:14:50;;;;;;;18.25;12.45;;;11.20;80.00;;;;;;4878187;29;20037;-71
2021/03/19 09:17:48;;;;;;;17.23;11.05;;;10.80;81.50;;;;;;4866119;29;20033;-69
2021/03/19 09:20:36;;;;;;;17.60;11.18;;;10.30;84.30;;;;;;4862781;29;20104;-71
2021/03/19 09:23:17;;;;;;;20.50;12.45;;;10.10;83.40;;;;;;4858869;29;20021;-71
2021/03/19 09:25:51;;;;;;;17.40;11.32;;;9.80;87.30;;;;;;4868565;29;20468;-70
2021/03/19 09:28:25;;;;;;;16.75;10.95;;;9.50;85.60;;;;;;4861683;29;20041;-71
2021/03/19 09:31:03;;;;;;;15.73;10.13;;;9.50;85.40;;;;;;4877161;29;20033;-71
2021/03/19 09:33:44;;;;;;;17.15;10.05;;;9.50;86.90;;;;;;4877132;29;20033;-70
2021/03/19 09:36:47;;;;;;;17.90;10.63;;;9.50;87.80;;;;;;4875817;29;20119;-70
2021/03/19 09:39:55;;;;;;;14.10;9.07;;;9.40;88.70;;;;;;4859837;29;20447;-70
2021/03/19 09:42:21;;;;;;;13.10;8.85;;;8.70;88.00;;;;;;4860799;29;20110;-69
2021/03/19 09:44:58;;;;;;;15.43;9.63;;;8.30;90.30;;;;;;4861024;29;20035;-70
2021/03/19 09:47:31;;;;;;;16.23;10.20;;;8.20;90.60;;;;;;4860534;29;20096;-69
2021/03/19 09:50:18;;;;;;;23.67;9.23;;;7.90;91.50;;;;;;4867460;29;20143;-70
2021/03/19 09:53:02;;;;;;;13.10;8.38;;;7.80;91.80;;;;;;4867430;29;20040;-70
2021/03/19 09:55:39;;;;;;;16.38;8.00;;;7.60;91.50;;;;;;4863587;29;20040;-70
2021/03/19 09:58:17;;;;;;;20.88;9.10;;;7.40;91.20;;;;;;4869159;29;20092;-70
2021/03/19 10:00:52;;;;;;;24.42;9.52;;;7.50;91.30;;;;;;4887901;29;20025;-70
2021/03/19 10:03:17;;;;;;;16.67;8.20;;;7.20;91.20;;;;;;4867281;29;20164;-70
2021/03/19 10:05:46;;;;;;;12.55;8.30;;;7.10;92.10;;;;;;4866859;29;20060;-70
2021/03/19 10:08:25;;;;;;;14.93;8.65;;;7.20;91.50;;;;;;4861752;29;20036;-70
2021/03/19 10:11:01;;;;;;;14.38;8.80;;;6.90;91.70;;;;;;4873862;29;20044;-71
2021/03/19 10:13:27;;;;;;;16.67;10.43;;;6.80;92.70;;;;;;4898213;29;20099;-71
2021/03/19 10:15:55;;;;;;;12.60;7.32;;;6.80;92.40;;;;;;4897382;29;20454;-70
2021/03/19 10:18:35;;;;;;;7.07;4.50;;;6.60;93.30;;;;;;4884396;29;20028;-67
2021/03/19 10:21:18;;;;;;;11.50;7.70;;;7.20;99.90;;;;;;4887812;29;20025;-69
2021/03/19 10:24:05;;;;;;;11.07;7.32;;;7.20;92.90;;;;;;4885045;29;20044;-70
2021/03/19 10:26:38;;;;;;;15.30;7.25;;;7.10;92.80;;;;;;4887304;29;20099;-69
2021/03/19 10:29:23;;;;;;;12.65;7.93;;;7.30;92.80;;;;;;4883778;29;20051;-71
2021/03/19 10:32:03;;;;;;;16.05;8.23;;;7.30;92.30;;;;;;4874418;29;20025;-71
2021/03/19 10:34:31;;;;;;;15.90;9.02;;;7.40;92.40;;;;;;4876549;29;20093;-68
2021/03/19 10:37:22;;;;;;;13.90;9.02;;;7.30;92.50;;;;;;4871232;29;20036;-72
2021/03/19 10:39:54;;;;;;;18.38;10.40;;;7.40;92.20;;;;;;4893245;29;20115;-70
2021/03/19 10:42:29;;;;;;;11.40;7.75;;;7.40;91.50;;;;;;4867662;29;20033;-69
2021/03/19 10:45:16;;;;;;;13.43;7.97;;;7.20;92.00;;;;;;4879076;29;20029;-70
2021/03/19 10:47:46;;;;;;;11.95;7.72;;;7.10;91.90;;;;;;4875694;29;20091;-68
2021/03/19 10:50:25;;;;;;;10.63;6.95;;;7.30;91.80;;;;;;4876509;29;20029;-68
2021/03/19 10:53:01;;;;;;;19.80;7.35;;;7.10;91.50;;;;;;4858492;29;20044;-69
2021/03/19 10:55:31;;;;;;;22.15;8.77;;;7.20;92.30;;;;;;4859163;29;20036;-67
2021/03/19 10:58:26;;;;;;;17.10;8.05;;;7.30;91.70;;;;;;4859070;29;20101;-68
2021/03/19 11:00:53;;;;;;;15.57;9.70;;;7.40;91.70;;;;;;4876370;29;20036;-68
2021/03/19 11:03:31;;;;;;;14.18;8.90;;;7.40;91.20;;;;;;4858488;29;20379;-68
2021/03/19 11:06:02;;;;;;;11.70;6.97;;;7.10;92.10;;;;;;4873422;29;20029;-68
2021/03/19 11:08:28;;;;;;;10.52;7.75;;;8.00;91.60;;;;;;4894891;29;20033;-70
2021/03/19 11:10:54;;;;;;;10.02;6.45;;;8.60;90.50;;;;;;4894281;29;20049;-69
2021/03/19 11:13:27;;;;;;;12.25;6.80;;;8.80;87.30;;;;;;4894099;29;20024;-70
2021/03/19 11:15:56;;;;;;;23.33;7.78;;;8.90;85.10;;;;;;4878074;29;20033;-70
2021/03/19 11:18:37;;;;;;;13.65;7.90;;;8.90;82.70;;;;;;4877132;29;20043;-69
2021/03/19 11:21:05;;;;;;;8.97;6.60;;;8.90;83.90;;;;;;4877058;29;20029;-68
2021/03/19 11:23:48;;;;;;;13.75;8.13;;;8.90;84.20;;;;;;4880503;29;20377;-69
2021/03/19 11:26:29;;;;;;;12.55;8.35;;;8.90;83.80;;;;;;4880956;29;20036;-69
2021/03/19 11:29:13;;;;;;;13.57;7.93;;;8.90;82.60;;;;;;4881928;29;20024;-70
2021/03/19 11:32:04;;;;;;;12.07;6.47;;;8.80;81.80;;;;;;4881396;29;20067;-70
2021/03/19 11:34:48;;;;;;;10.20;6.78;;;9.30;80.30;;;;;;4881661;29;20514;-69
2021/03/19 11:37:15;;;;;;;13.60;6.30;;;9.60;79.20;;;;;;4880704;29;20036;-69
2021/03/19 11:39:54;;;;;;;15.82;10.45;;;9.60;77.80;;;;;;4898282;29;20111;-69
2021/03/19 11:42:21;;;;;;;12.77;7.90;;;9.30;78.70;;;;;;4881041;29;20040;-69
2021/03/19 11:44:50;;;;;;;30.17;8.77;;;9.20;80.40;;;;;;4898314;29;20025;-71
2021/03/19 11:47:21;;;;;;;10.23;5.97;;;9.40;81.10;;;;;;4880685;29;20036;-71
2021/03/19 11:49:48;;;;;;;9.13;6.15;;;9.30;78.80;;;;;;4881284;29;20063;-71
2021/03/19 11:52:17;;;;;;;13.13;5.90;;;9.20;78.30;;;;;;4880395;29;20088;-69
2021/03/19 11:54:43;;;;;;;15.52;8.40;;;9.50;79.20;;;;;;4880479;29;20096;-70
2021/03/19 11:57:10;;;;;;;17.50;10.60;;;10.00;77.90;;;;;;4897422;29;20040;-73
2021/03/19 11:59:36;;;;;;;11.88;6.25;;;9.90;75.60;;;;;;4880880;29;20033;-70
2021/03/19 12:02:07;;;;;;;7.70;5.63;;;9.70;76.30;;;;;;4880133;29;20055;-69
2021/03/19 12:04:33;;;;;;;14.10;7.13;;;9.60;78.00;;;;;;4894332;29;20081;-69
2021/03/19 12:06:59;;;;;;;21.45;12.80;;;9.70;76.30;;;;;;4877150;29;20083;-69
2021/03/19 12:09:27;;;;;;;14.52;9.57;;;10.10;78.70;;;;;;4876444;29;20463;-69
2021/03/19 12:11:53;;;;;;;15.27;8.05;;;10.40;74.50;;;;;;4861615;29;20137;-69
2021/03/19 12:14:23;;;;;;;11.55;7.10;;;11.00;72.70;;;;;;4861185;29;20111;-70
2021/03/19 12:16:49;;;;;;;16.88;10.25;;;11.70;72.90;;;;;;4878560;29;20040;-69
2021/03/19 12:19:16;;;;;;;15.45;6.88;;;12.20;69.10;;;;;;4877900;29;20179;-69
2021/03/19 12:21:43;;;;;;;6.65;4.90;;;12.80;68.70;;;;;;4861958;29;20029;-71
2021/03/19 12:24:09;;;;;;;13.90;8.00;;;13.40;62.30;;;;;;4861136;29;20047;-70
2021/03/19 12:26:35;;;;;;;6.60;4.95;;;13.60;61.00;;;;;;4878526;29;20132;-70
2021/03/19 12:29:01;;;;;;;7.57;5.50;;;14.00;59.70;;;;;;4878732;29;20167;-70
2021/03/19 12:31:26;;;;;;;7.63;4.68;;;13.50;57.80;;;;;;4860794;29;20048;-69
2021/03/19 12:33:52;;;;;;;6.65;5.00;;;12.50;60.40;;;;;;4878721;29;20170;-70
2021/03/19 12:36:18;;;;;;;8.13;4.15;;;12.00;60.80;;;;;;4877454;29;20084;-71
2021/03/19 12:38:44;;;;;;;9.48;5.30;;;11.50;61.20;;;;;;4896734;29;20532;-69
2021/03/19 12:41:10;;;;;;;8.65;5.13;;;11.20;63.20;;;;;;4879060;29;20498;-69
2021/03/19 12:43:36;;;;;;;12.15;7.57;;;10.90;64.90;;;;;;4880382;29;20123;-68
2021/03/19 12:46:02;;;;;;;8.13;5.25;;;10.60;66.50;;;;;;4880194;29;20121;-70
2021/03/19 12:48:28;;;;;;;7.47;4.68;;;10.20;66.80;;;;;;4896693;29;20036;-71
2021/03/19 12:50:54;;;;;;;10.63;5.25;;;9.90;63.60;;;;;;4879699;29;20092;-69
2021/03/19 12:53:22;;;;;;;9.52;4.45;;;9.90;66.70;;;;;;4896902;29;20458;-70
2021/03/19 12:55:48;;;;;;;9.30;5.25;;;9.60;63.10;;;;;;4879201;29;20108;-69
2021/03/19 12:58:14;;;;;;;12.60;7.10;;;9.80;65.10;;;;;;4895780;29;20033;-70
2021/03/19 13:00:40;;;;;;;7.53;4.72;;;10.60;66.00;;;;;;4878961;29;20033;-69
2021/03/19 13:03:07;;;;;;;6.55;4.25;;;11.00;62.80;;;;;;4896474;29;20032;-68
2021/03/19 13:05:34;;;;;;;4.50;3.13;;;11.70;60.80;;;;;;4896852;29;20159;-70
2021/03/19 13:08:00;;;;;;;5.03;3.35;;;12.00;57.40;;;;;;4879508;29;20041;-70
2021/03/19 13:10:28;;;;;;;6.10;3.72;;;12.90;57.10;;;;;;4878672;29;20179;-70
2021/03/19 13:12:54;;;;;;;6.28;3.65;;;13.10;56.00;;;;;;4896322;29;20112;-73
2021/03/19 13:15:24;;;;;;;10.48;4.95;;;12.70;56.90;;;;;;4878379;29;20119;-73